createdAt,value
2022-11-18T00:00:32.262Z,2.60
2022-11-18T00:03:05.164Z,3.72
2022-11-18T00:05:37.546Z,1.58
2022-11-18T00:08:10.667Z,1.63
2022-11-18T00:10:42.990Z,2.90
2022-11-18T00:13:33.506Z,2.83
2022-11-18T00:16:08.024Z,2.17
2022-11-18T00:18:40.428Z,2.25
2022-11-18T00:21:12.782Z,2.10
2022-11-18T00:23:48.683Z,3.38
2022-11-18T00:26:21.030Z,3.30
2022-11-18T00:28:53.405Z,2.78
2022-11-18T00:31:25.781Z,1.85
2022-11-18T00:33:58.215Z,2.15
2022-11-18T00:36:30.881Z,1.65
2022-11-18T00:39:03.986Z,2.40
2022-11-18T00:41:54.361Z,2.25
2022-11-18T00:44:26.785Z,2.00
2022-11-18T00:46:59.176Z,1.30
2022-11-18T00:49:31.537Z,1.83
2022-11-18T00:52:04.857Z,2.00
2022-11-18T00:54:37.887Z,2.20
2022-11-18T00:57:10.269Z,1.65
2022-11-18T00:59:42.669Z,2.15
2022-11-18T01:02:15.131Z,1.98
2022-11-18T01:04:47.526Z,2.00
2022-11-18T01:07:19.951Z,3.13
2022-11-18T01:09:53.007Z,3.13
2022-11-18T01:12:43.159Z,1.85
2022-11-18T01:15:15.533Z,2.47
2022-11-18T01:17:47.951Z,2.30
2022-11-18T01:20:20.325Z,2.38
2022-11-18T01:22:52.710Z,2.45
2022-11-18T01:25:25.928Z,1.92
2022-11-18T01:27:58.255Z,1.33
2022-11-18T01:30:33.750Z,1.63
2022-11-18T01:33:06.482Z,2.00
2022-11-18T01:35:40.875Z,2.55
2022-11-18T01:38:14.362Z,3.92
2022-11-18T01:40:47.369Z,1.80
2022-11-18T01:43:21.760Z,2.00
2022-11-18T01:45:54.202Z,2.28
2022-11-18T01:48:31.509Z,1.50
2022-11-18T01:51:07.709Z,1.42
2022-11-18T01:53:42.712Z,1.85
2022-11-18T01:56:18.762Z,1.73
2022-11-18T01:58:55.499Z,2.38
2022-11-18T02:01:27.970Z,3.22
2022-11-18T02:04:00.613Z,2.15
2022-11-18T02:06:33.432Z,4.15
2022-11-18T02:09:05.978Z,2.70
2022-11-18T02:11:51.046Z,2.20
2022-11-18T02:14:26.467Z,1.92
2022-11-18T02:17:11.558Z,2.00
2022-11-18T02:20:18.576Z,1.58
2022-11-18T02:23:16.881Z,1.92
2022-11-18T02:26:07.384Z,2.40
2022-11-18T02:28:59.153Z,1.45
2022-11-18T02:31:35.205Z,2.13
2022-11-18T02:34:17.632Z,2.13
2022-11-18T02:36:55.026Z,2.05
2022-11-18T02:39:33.525Z,2.00
2022-11-18T02:42:10.457Z,2.40
2022-11-18T02:44:50.802Z,2.20
2022-11-18T02:47:25.493Z,2.40
2022-11-18T02:50:03.168Z,2.25
2022-11-18T02:52:37.822Z,2.47
2022-11-18T02:55:13.429Z,1.90
2022-11-18T02:57:47.577Z,2.70
2022-11-18T03:00:20.657Z,2.53
2022-11-18T03:02:53.053Z,3.22
2022-11-18T03:05:31.605Z,2.85
2022-11-18T03:08:09.608Z,2.97
2022-11-18T03:10:52.068Z,3.58
2022-11-18T03:13:32.286Z,3.08
2022-11-18T03:16:12.460Z,3.38
2022-11-18T03:18:50.406Z,2.92
2022-11-18T03:21:34.717Z,3.92
2022-11-18T03:24:14.734Z,3.97
2022-11-18T03:26:53.955Z,3.47
2022-11-18T03:29:32.579Z,4.65
2022-11-18T03:32:09.738Z,3.33
2022-11-18T03:34:44.920Z,3.85
2022-11-18T03:37:19.867Z,3.88
2022-11-18T03:39:56.596Z,3.40
2022-11-18T03:42:34.827Z,2.75
2022-11-18T03:45:12.288Z,4.47
2022-11-18T03:47:50.041Z,4.55
2022-11-18T03:50:27.959Z,3.70
2022-11-18T03:53:02.614Z,3.88
2022-11-18T03:55:39.556Z,2.50
2022-11-18T03:58:18.209Z,2.45
2022-11-18T04:00:54.165Z,2.15
2022-11-18T04:03:27.388Z,2.30
2022-11-18T04:06:09.205Z,2.83
2022-11-18T04:08:45.238Z,4.88
2022-11-18T04:11:38.717Z,4.80
2022-11-18T04:14:13.664Z,4.18
2022-11-18T04:16:50.717Z,4.55
2022-11-18T04:19:23.987Z,4.65
2022-11-18T04:21:56.575Z,2.90
2022-11-18T04:24:28.960Z,3.35
2022-11-18T04:27:02.102Z,4.28
2022-11-18T04:29:34.683Z,3.35
2022-11-18T04:32:07.256Z,4.47
2022-11-18T04:34:40.243Z,6.15
2022-11-18T04:37:12.612Z,6.60
2022-11-18T04:39:44.950Z,3.60
2022-11-18T04:42:17.356Z,3.75
2022-11-18T04:44:49.713Z,3.15
2022-11-18T04:47:22.203Z,5.43
2022-11-18T04:49:55.243Z,4.40
2022-11-18T04:52:27.671Z,3.75
2022-11-18T04:55:00.046Z,4.40
2022-11-18T04:57:32.449Z,2.85
2022-11-18T05:00:06.269Z,2.38
2022-11-18T05:02:38.689Z,2.58
2022-11-18T05:05:11.750Z,3.05
2022-11-18T05:07:44.178Z,2.90
2022-11-18T05:10:17.026Z,4.85
2022-11-18T05:12:49.112Z,4.70
2022-11-18T05:15:23.264Z,3.92
2022-11-18T05:17:55.647Z,6.82
2022-11-18T05:20:28.677Z,6.68
2022-11-18T05:23:01.109Z,5.43
2022-11-18T05:25:35.205Z,4.25
2022-11-18T05:28:07.640Z,6.20
2022-11-18T05:30:40.310Z,5.15
2022-11-18T05:33:12.670Z,3.88
2022-11-18T05:35:45.713Z,5.85
2022-11-18T05:38:18.149Z,4.70
2022-11-18T05:40:50.503Z,3.72
2022-11-18T05:43:22.611Z,6.13
2022-11-18T05:45:54.989Z,4.25
2022-11-18T05:48:27.654Z,3.67
2022-11-18T05:51:00.715Z,5.40
2022-11-18T05:53:33.148Z,4.40
2022-11-18T05:56:15.615Z,4.03
2022-11-18T05:58:48.087Z,4.13
2022-11-18T06:01:24.485Z,3.28
2022-11-18T06:03:58.104Z,3.80
2022-11-18T06:06:31.733Z,4.47
2022-11-18T06:09:05.776Z,4.82
2022-11-18T06:11:41.494Z,3.50
2022-11-18T06:14:16.773Z,4.13
2022-11-18T06:16:54.480Z,4.30
2022-11-18T06:19:27.068Z,5.53
2022-11-18T06:22:01.462Z,7.53
2022-11-18T06:24:34.346Z,5.50
2022-11-18T06:27:06.786Z,3.90
2022-11-18T06:29:39.377Z,3.33
2022-11-18T06:32:11.792Z,3.10
2022-11-18T06:34:44.274Z,2.70
2022-11-18T06:37:19.924Z,2.80
2022-11-18T06:39:52.384Z,5.00
2022-11-18T06:42:45.771Z,2.45
2022-11-18T06:45:18.248Z,2.88
2022-11-18T06:47:50.667Z,2.03
2022-11-18T06:50:23.092Z,3.53
2022-11-18T06:52:56.419Z,2.85
2022-11-18T06:55:29.164Z,2.45
2022-11-18T06:58:01.512Z,3.20
2022-11-18T07:00:33.968Z,2.15
2022-11-18T07:03:06.420Z,2.00
2022-11-18T07:05:38.873Z,1.83
2022-11-18T07:08:11.949Z,2.58
2022-11-18T07:10:52.103Z,1.98
2022-11-18T07:13:24.524Z,2.17
2022-11-18T07:16:03.085Z,2.80
2022-11-18T07:18:37.806Z,2.47
2022-11-18T07:21:14.752Z,4.18
2022-11-18T07:23:48.198Z,2.15
2022-11-18T07:26:21.221Z,3.10
2022-11-18T07:28:54.077Z,1.92
2022-11-18T07:31:26.595Z,1.58
2022-11-18T07:33:58.979Z,2.70
2022-11-18T07:36:35.638Z,1.80
2022-11-18T07:39:09.520Z,2.00
2022-11-18T07:41:41.940Z,1.58
2022-11-18T07:44:14.436Z,1.83
2022-11-18T07:46:46.806Z,2.28
2022-11-18T07:49:19.591Z,1.20
2022-11-18T07:51:53.041Z,1.00
2022-11-18T07:54:26.063Z,0.75
2022-11-18T07:56:58.454Z,0.50
2022-11-18T07:59:30.802Z,0.82
2022-11-18T08:02:03.309Z,0.80
2022-11-18T08:04:37.234Z,0.88
2022-11-18T08:07:09.926Z,0.77
2022-11-18T08:09:43.029Z,0.60
2022-11-18T08:12:15.408Z,0.82
2022-11-18T08:14:49.310Z,0.63
2022-11-18T08:17:22.171Z,0.60
2022-11-18T08:19:54.624Z,0.80
2022-11-18T08:22:27.001Z,0.73
2022-11-18T08:25:00.120Z,0.90
2022-11-18T08:27:32.830Z,0.95
2022-11-18T08:30:06.236Z,1.00
2022-11-18T08:32:38.729Z,0.73
2022-11-18T08:35:11.572Z,0.70
2022-11-18T08:37:44.068Z,1.35
2022-11-18T08:40:17.274Z,1.35
2022-11-18T08:42:49.725Z,1.13
2022-11-18T08:45:22.231Z,0.82
2022-11-18T08:47:54.650Z,0.65
2022-11-18T08:50:27.016Z,0.65
2022-11-18T08:52:59.419Z,0.73
2022-11-18T08:55:32.472Z,0.30
2022-11-18T08:58:04.858Z,0.50
2022-11-18T09:00:38.182Z,0.50
2022-11-18T09:03:10.593Z,0.65
2022-11-18T09:05:43.012Z,0.40
2022-11-18T09:08:15.543Z,0.60
2022-11-18T09:10:48.614Z,0.60
2022-11-18T09:16:13.918Z,0.70
2022-11-18T09:18:46.298Z,0.73
2022-11-18T09:21:18.948Z,0.60
2022-11-18T09:23:51.489Z,0.50
2022-11-18T09:26:24.520Z,0.60
2022-11-18T09:28:57.223Z,0.70
2022-11-18T09:31:30.042Z,0.32
2022-11-18T09:34:02.540Z,0.50
2022-11-18T09:36:34.952Z,0.68
2022-11-18T09:39:07.338Z,0.50
2022-11-18T09:41:48.068Z,0.50
2022-11-18T09:44:44.509Z,0.70
2022-11-18T09:47:25.863Z,0.93
2022-11-18T09:50:03.791Z,0.50
2022-11-18T09:52:50.607Z,0.60
2022-11-18T09:55:23.399Z,0.40
2022-11-18T09:57:58.627Z,0.50
2022-11-18T10:00:31.207Z,0.38
2022-11-18T10:03:05.925Z,0.55
2022-11-18T10:05:45.093Z,0.50
2022-11-18T10:08:25.352Z,0.40
2022-11-18T10:11:01.500Z,0.30
2022-11-18T10:13:48.537Z,0.32
2022-11-18T10:16:30.049Z,0.70
2022-11-18T10:19:11.625Z,0.30
2022-11-18T10:21:56.018Z,0.40
2022-11-18T10:24:33.336Z,0.30
2022-11-18T10:27:10.524Z,0.60
2022-11-18T10:29:44.966Z,0.60
2022-11-18T10:32:17.930Z,0.88
2022-11-18T10:34:52.967Z,0.35
2022-11-18T10:37:52.489Z,0.60
2022-11-18T10:40:25.182Z,0.60
2022-11-18T10:42:57.619Z,0.50
2022-11-18T10:45:32.407Z,0.40
2022-11-18T10:48:16.458Z,0.55
2022-11-18T10:50:55.246Z,0.70
2022-11-18T10:53:30.979Z,0.70
2022-11-18T10:56:04.728Z,0.50
2022-11-18T10:58:41.441Z,0.68
2022-11-18T11:01:21.210Z,0.80
2022-11-18T11:03:59.256Z,0.98
2022-11-18T11:06:34.397Z,1.75
2022-11-18T11:09:09.755Z,0.60
2022-11-18T11:11:54.709Z,0.88
2022-11-18T11:14:31.647Z,0.68
2022-11-18T11:17:09.306Z,0.80
2022-11-18T11:19:48.870Z,0.70
2022-11-18T11:22:21.343Z,0.80
2022-11-18T11:24:53.850Z,0.88
2022-11-18T11:30:38.741Z,0.65
2022-11-18T11:33:30.710Z,0.65
2022-11-18T11:36:41.401Z,0.90
2022-11-18T11:39:46.600Z,0.77
2022-11-18T11:42:35.025Z,0.50
2022-11-18T11:45:19.247Z,1.20
2022-11-18T11:48:12.534Z,1.00
2022-11-18T11:51:04.063Z,1.30
2022-11-18T11:53:59.500Z,0.80
2022-11-18T11:56:35.342Z,2.22
2022-11-18T11:59:27.642Z,1.00
2022-11-18T12:02:40.045Z,2.88
2022-11-18T12:05:21.879Z,1.23
2022-11-18T12:07:57.311Z,1.60
2022-11-18T12:10:40.109Z,1.73
2022-11-18T12:13:35.330Z,3.38
2022-11-18T12:16:27.865Z,2.00
2022-11-18T12:19:06.728Z,1.10
2022-11-18T12:21:55.475Z,0.93
2022-11-18T12:24:31.582Z,1.55
2022-11-18T12:27:10.718Z,1.00
2022-11-18T12:29:54.192Z,1.40
2022-11-18T12:32:29.788Z,1.23
2022-11-18T12:35:05.698Z,0.88
2022-11-18T12:37:44.673Z,1.45
2022-11-18T12:40:36.672Z,1.43
2022-11-18T12:43:58.385Z,1.17
2022-11-18T12:46:54.810Z,1.88
2022-11-18T12:50:03.531Z,1.40
2022-11-18T12:52:47.734Z,1.52
2022-11-18T12:55:30.511Z,1.58
2022-11-18T12:58:03.554Z,1.63
2022-11-18T13:00:51.492Z,1.92
2022-11-18T13:03:28.321Z,1.00
2022-11-18T13:06:05.707Z,1.25
2022-11-18T13:08:39.735Z,0.93
2022-11-18T13:11:34.761Z,1.50
2022-11-18T13:14:33.431Z,1.60
2022-11-18T13:17:47.905Z,0.80
2022-11-18T13:20:28.637Z,0.70
2022-11-18T13:23:20.844Z,1.15
2022-11-18T13:25:53.906Z,0.77
2022-11-18T13:28:32.785Z,1.85
2022-11-18T13:31:14.621Z,0.80
2022-11-18T13:33:47.254Z,0.77
2022-11-18T13:36:22.470Z,1.85
2022-11-18T13:38:56.117Z,1.40
2022-11-18T13:41:32.308Z,0.82
2022-11-18T13:44:15.528Z,0.70
2022-11-18T13:46:53.686Z,0.90
2022-11-18T13:49:50.081Z,1.20
2022-11-18T13:52:27.552Z,1.42
2022-11-18T13:55:03.086Z,1.80
2022-11-18T13:57:36.357Z,0.75
2022-11-18T14:00:21.197Z,0.80
2022-11-18T14:02:57.450Z,0.82
2022-11-18T14:05:29.833Z,0.95
2022-11-18T14:08:05.829Z,0.70
2022-11-18T14:10:43.602Z,0.90
2022-11-18T14:13:22.902Z,0.93
2022-11-18T14:15:57.272Z,0.52
2022-11-18T14:18:33.703Z,0.70
2022-11-18T14:21:06.264Z,1.02
2022-11-18T14:23:43.283Z,1.08
2022-11-18T14:26:27.239Z,1.30
2022-11-18T14:29:01.327Z,0.80
2022-11-18T14:31:33.751Z,1.27
2022-11-18T14:34:23.959Z,0.68
2022-11-18T14:36:56.497Z,0.80
2022-11-18T14:39:30.420Z,0.80
2022-11-18T14:42:04.956Z,0.57
2022-11-18T14:44:37.310Z,1.02
2022-11-18T14:47:19.020Z,0.80
2022-11-18T14:49:52.182Z,1.23
2022-11-18T14:52:24.554Z,1.05
2022-11-18T14:54:56.886Z,1.63
2022-11-18T14:57:29.286Z,0.70
2022-11-18T15:00:01.883Z,0.95
2022-11-18T15:02:34.325Z,2.63
2022-11-18T15:05:08.507Z,1.45
2022-11-18T15:07:40.918Z,1.60
2022-11-18T15:10:15.502Z,0.90
2022-11-18T15:12:47.938Z,2.55
2022-11-18T15:15:20.305Z,2.08
2022-11-18T15:17:54.057Z,3.15
2022-11-18T15:20:27.416Z,2.42
2022-11-18T15:22:59.796Z,2.00
2022-11-18T15:25:32.179Z,2.20
2022-11-18T15:28:04.647Z,1.88
2022-11-18T15:30:37.011Z,2.10
2022-11-18T15:33:09.376Z,1.40
2022-11-18T15:35:42.515Z,2.55
2022-11-18T15:38:14.919Z,1.70
2022-11-18T15:40:47.432Z,1.70
2022-11-18T15:43:19.839Z,5.28
2022-11-18T15:45:56.703Z,2.45
2022-11-18T15:48:29.134Z,1.92
2022-11-18T15:51:03.636Z,2.03
2022-11-18T15:53:37.898Z,2.50
2022-11-18T15:56:24.485Z,2.35
2022-11-18T15:58:58.820Z,2.42
2022-11-18T16:01:33.063Z,2.55
2022-11-18T16:04:07.511Z,2.47
2022-11-18T16:06:42.728Z,2.10
2022-11-18T16:09:16.653Z,1.92
2022-11-18T16:12:07.127Z,1.00
2022-11-18T16:14:39.481Z,1.33
2022-11-18T16:17:11.841Z,1.48
2022-11-18T16:19:44.184Z,2.45
2022-11-18T16:22:17.173Z,1.40
2022-11-18T16:24:49.560Z,0.93
2022-11-18T16:27:21.906Z,1.45
2022-11-18T16:29:54.338Z,0.90
2022-11-18T16:32:26.397Z,1.10
2022-11-18T16:35:01.371Z,1.55
2022-11-18T16:37:34.913Z,1.45
2022-11-18T16:40:08.941Z,1.00
2022-11-18T16:42:41.468Z,1.15
2022-11-18T16:45:13.976Z,1.75
2022-11-18T16:47:46.361Z,1.75
2022-11-18T16:50:18.966Z,1.08
2022-11-18T16:52:51.956Z,1.60
2022-11-18T16:55:24.302Z,1.10
2022-11-18T16:57:56.702Z,1.40
2022-11-18T17:00:58.307Z,1.38
2022-11-18T17:03:22.646Z,1.60
2022-11-18T17:05:59.627Z,2.20
2022-11-18T17:08:34.257Z,1.45
2022-11-18T17:11:08.517Z,1.85
2022-11-18T17:13:41.434Z,1.60
2022-11-18T17:16:15.995Z,1.85
2022-11-18T17:18:53.765Z,1.80
2022-11-18T17:21:27.863Z,1.30
2022-11-18T17:24:00.882Z,1.63
2022-11-18T17:26:33.797Z,1.80
2022-11-18T17:29:06.113Z,1.38
2022-11-18T17:31:39.183Z,1.17
2022-11-18T17:34:13.146Z,0.73
2022-11-18T17:36:45.563Z,1.35
2022-11-18T17:39:20.015Z,1.30
2022-11-18T17:42:10.438Z,1.27
2022-11-18T17:44:43.010Z,2.00
2022-11-18T17:47:15.403Z,1.70
2022-11-18T17:49:47.754Z,1.13
2022-11-18T17:52:20.159Z,2.08
2022-11-18T17:54:53.157Z,1.00
2022-11-18T17:57:25.547Z,1.48
2022-11-18T17:59:57.953Z,1.40
2022-11-18T18:02:30.357Z,1.48
2022-11-18T18:05:02.795Z,1.77
2022-11-18T18:07:35.204Z,2.03
2022-11-18T18:10:09.187Z,1.15
2022-11-18T18:27:22.785Z,1.10
2022-11-18T18:29:55.356Z,1.50
2022-11-18T18:32:28.793Z,1.83
2022-11-18T18:35:01.198Z,1.23
2022-11-18T18:37:35.076Z,1.85
2022-11-18T18:40:08.502Z,1.55
2022-11-18T18:42:41.542Z,1.63
2022-11-18T18:45:32.359Z,1.25
2022-11-18T18:48:05.163Z,1.70
2022-11-18T18:50:37.584Z,2.05
2022-11-18T18:53:09.893Z,1.50
2022-11-18T18:55:45.032Z,1.45
2022-11-18T18:58:18.347Z,1.05
2022-11-18T19:00:54.233Z,1.15
2022-11-18T19:03:30.374Z,1.00
2022-11-18T19:06:48.804Z,1.50
2022-11-18T19:09:08.795Z,1.20
2022-11-18T19:11:59.806Z,1.48
2022-11-18T19:14:34.529Z,1.23
2022-11-18T19:17:11.321Z,1.13
2022-11-18T19:20:02.463Z,1.20
2022-11-18T19:22:35.036Z,1.30
2022-11-18T19:25:08.078Z,0.90
2022-11-18T19:27:40.582Z,1.17
2022-11-18T19:30:13.851Z,1.40
2022-11-18T19:32:46.287Z,1.48
2022-11-18T19:35:18.916Z,1.10
2022-11-18T19:37:51.278Z,1.02
2022-11-18T19:40:23.724Z,1.25
2022-11-18T19:42:56.123Z,1.30
2022-11-18T19:45:29.253Z,1.35
2022-11-18T19:48:02.180Z,1.23
2022-11-18T19:50:34.529Z,1.35
2022-11-18T19:53:26.918Z,1.10
2022-11-18T19:56:00.794Z,1.20
2022-11-18T19:58:34.997Z,0.80
2022-11-18T20:01:13.875Z,1.23
2022-11-18T20:03:47.636Z,1.40
2022-11-18T20:06:21.535Z,0.93
2022-11-18T20:08:55.107Z,1.17
2022-11-18T20:11:28.134Z,1.67
2022-11-18T20:14:00.874Z,1.35
2022-11-18T20:16:36.332Z,1.20
2022-11-18T20:19:12.688Z,1.40
2022-11-18T20:21:47.154Z,1.33
2022-11-18T20:24:19.516Z,1.92
2022-11-18T20:26:51.897Z,1.60
2022-11-18T20:29:24.317Z,1.40
2022-11-18T20:31:57.330Z,1.33
2022-11-18T20:34:29.685Z,1.40
2022-11-18T20:37:02.072Z,1.27
2022-11-18T20:39:34.457Z,1.70
2022-11-18T20:42:25.006Z,1.85
2022-11-18T20:44:57.357Z,1.45
2022-11-18T20:47:30.498Z,1.25
2022-11-18T20:50:03.036Z,1.50
2022-11-18T20:52:35.469Z,1.75
2022-11-18T20:55:09.720Z,1.23
2022-11-18T20:57:42.119Z,2.00
2022-11-18T21:00:15.309Z,2.08
2022-11-18T21:02:48.526Z,1.63
2022-11-18T21:05:20.881Z,2.70
2022-11-18T21:07:53.241Z,2.22
2022-11-18T21:10:25.621Z,2.10
2022-11-18T21:13:16.150Z,1.27
2022-11-18T21:15:48.521Z,1.98
2022-11-18T21:18:21.579Z,1.58
2022-11-18T21:21:11.266Z,1.75
2022-11-18T21:26:15.648Z,1.80
2022-11-18T21:28:48.561Z,1.77
2022-11-18T21:31:23.343Z,1.33
2022-11-18T21:33:56.947Z,1.02
2022-11-18T21:36:29.745Z,1.40
2022-11-18T21:39:04.195Z,2.17
2022-11-18T21:41:36.971Z,1.42
2022-11-18T21:44:10.879Z,1.45
2022-11-18T21:46:43.277Z,2.20
2022-11-18T21:49:16.721Z,1.25
2022-11-18T21:51:49.619Z,2.08
2022-11-18T21:54:21.967Z,1.90
2022-11-18T21:56:54.374Z,1.25
2022-11-18T21:59:26.755Z,2.08
2022-11-18T22:01:59.131Z,1.88
2022-11-18T22:04:50.242Z,1.30
2022-11-18T22:07:23.686Z,1.67
2022-11-18T22:09:56.028Z,1.33
2022-11-18T22:12:28.376Z,1.67
2022-11-18T22:15:00.904Z,1.50
2022-11-18T22:17:33.270Z,1.73
2022-11-18T22:20:07.671Z,1.50
2022-11-18T22:22:40.078Z,2.20
2022-11-18T22:25:12.470Z,1.23
2022-11-18T22:27:44.884Z,1.65
2022-11-18T22:30:17.284Z,1.48
2022-11-18T22:32:49.677Z,2.67
2022-11-18T22:35:22.649Z,1.42
2022-11-18T22:37:54.968Z,2.35
2022-11-18T22:40:27.326Z,2.22
2022-11-18T22:42:59.356Z,2.67
2022-11-18T22:45:31.649Z,2.83
2022-11-18T22:48:04.161Z,2.55
2022-11-18T22:50:37.323Z,2.05
2022-11-18T22:53:09.694Z,2.83
2022-11-18T22:55:42.013Z,1.80
2022-11-18T22:58:14.365Z,2.45
2022-11-18T23:00:47.184Z,2.10
2022-11-18T23:03:19.543Z,2.03
2022-11-18T23:05:58.925Z,2.03
2022-11-18T23:08:34.203Z,1.92
2022-11-18T23:11:09.055Z,2.50
2022-11-18T23:13:56.214Z,2.00
2022-11-18T23:16:32.167Z,2.05
2022-11-18T23:19:06.673Z,2.28
2022-11-18T23:21:40.246Z,1.88
2022-11-18T23:24:13.731Z,2.05
2022-11-18T23:26:46.558Z,1.60
2022-11-18T23:29:19.791Z,1.00
2022-11-18T23:31:53.141Z,0.70
2022-11-18T23:34:25.474Z,0.63
2022-11-18T23:36:58.455Z,0.80
2022-11-18T23:39:30.821Z,0.30
2022-11-18T23:42:04.433Z,0.10
2022-11-18T23:44:45.528Z,0.20
2022-11-18T23:47:17.862Z,0.20
2022-11-18T23:49:50.153Z,0.30
2022-11-18T23:52:23.196Z,0.30
2022-11-18T23:54:56.911Z,0.35
2022-11-18T23:57:29.287Z,0.30
